Time;durP1;ratioP1;P1;durP2;ratioP2;P2;SDS_P1;SDS_P2;PMS_P1;PMS_P2;Temp;Humidity;BMP_temperature;BMP_pressure;BME280_temperature;BME280_humidity;BME280_pressure;Samples;Min_cycle;Max_cycle;Signal;HPM_P1;HPM_P2
2022/05/07 00:00:41;;;;;;;1.62;1.52;;;;;;;20.47;45.15;100572.86;1823235;78;21016;-67
2022/05/07 00:03:07;;;;;;;1.95;1.70;;;;;;;20.46;45.17;100567.98;1823243;78;21013;-68
2022/05/07 00:05:34;;;;;;;2.22;2.05;;;;;;;20.45;45.14;100566.84;1823416;77;21033;-68
2022/05/07 00:08:00;;;;;;;2.10;1.90;;;;;;;20.45;45.14;100566.31;1823196;77;21230;-68
2022/05/07 00:10:28;;;;;;;1.72;1.62;;;;;;;20.44;45.16;100563.33;1823200;77;21006;-68
2022/05/07 00:12:54;;;;;;;2.00;1.77;;;;;;;20.43;45.17;100565.17;1823240;78;20970;-68
2022/05/07 00:15:21;;;;;;;1.62;1.52;;;;;;;20.42;45.18;100564.06;1821993;78;21001;-67
2022/05/07 00:18:04;;;;;;;1.98;1.80;;;;;;;20.41;45.16;100567.26;1823265;77;21021;-68
2022/05/07 00:20:31;;;;;;;2.33;1.87;;;;;;;20.40;45.16;100567.50;1823249;78;22057;-68
2022/05/07 00:23:07;;;;;;;2.17;1.80;;;;;;;20.39;45.14;100562.59;1823304;78;20978;-67
2022/05/07 00:25:33;;;;;;;1.72;1.62;;;;;;;20.38;45.17;100572.28;1823212;78;21029;-68
2022/05/07 00:28:01;;;;;;;1.95;1.85;;;;;;;20.37;45.17;100563.86;1823286;78;21553;-67
2022/05/07 00:30:27;;;;;;;1.80;1.65;;;;;;;20.36;45.16;100564.92;1823336;77;21033;-67
2022/05/07 00:32:54;;;;;;;2.67;1.82;;;;;;;20.35;45.16;100558.67;1810310;78;21247;-68
2022/05/07 00:35:21;;;;;;;2.02;1.87;;;;;;;20.34;45.16;100559.73;1823051;77;21065;-68
2022/05/07 00:37:47;;;;;;;1.65;1.55;;;;;;;20.34;45.15;100554.83;1824290;77;21017;-67
2022/05/07 00:40:13;;;;;;;1.70;1.60;;;;;;;20.33;45.15;100557.23;1826012;78;21052;-68
2022/05/07 00:42:41;;;;;;;1.70;1.57;;;;;;;20.32;45.17;100554.22;1826089;78;21025;-67
2022/05/07 00:45:09;;;;;;;2.47;2.25;;;;;;;20.31;45.16;100558.80;1826027;78;21136;-67
2022/05/07 00:47:38;;;;;;;1.87;1.77;;;;;;;20.31;45.17;100557.97;1826152;78;21497;-68
2022/05/07 00:52:52;;;;;;;2.67;1.80;;;;;;;20.28;45.14;100550.29;1793574;80;21076;-68
2022/05/07 00:55:18;;;;;;;1.87;1.75;;;;;;;20.27;45.14;100552.17;1793559;79;21061;-67
2022/05/07 00:57:46;;;;;;;1.75;1.57;;;;;;;20.27;45.14;100554.05;1793595;79;21013;-67
2022/05/07 01:00:13;;;;;;;2.30;1.80;;;;;;;20.25;45.15;100550.73;1793565;80;21036;-67
2022/05/07 01:02:41;;;;;;;1.70;1.60;;;;;;;20.25;45.16;100550.73;1793590;80;21073;-67
2022/05/07 01:05:10;;;;;;;2.20;1.72;;;;;;;20.23;45.16;100547.70;1793601;79;20977;-68
2022/05/07 01:07:36;;;;;;;2.05;1.85;;;;;;;20.21;45.14;100548.44;1794841;78;21002;-67
2022/05/07 01:10:04;;;;;;;1.70;1.60;;;;;;;20.21;45.17;100548.97;1793562;80;21086;-68
2022/05/07 01:12:33;;;;;;;1.80;1.70;;;;;;;20.20;45.15;100549.50;1775846;80;20974;-67
2022/05/07 01:15:00;;;;;;;2.20;2.00;;;;;;;20.20;45.18;100548.65;1793725;79;21021;-68
2022/05/07 01:17:32;;;;;;;3.05;1.85;;;;;;;20.18;45.16;100548.86;1775766;80;21021;-68
2022/05/07 01:20:00;;;;;;;2.10;1.90;;;;;;;20.18;45.15;100545.34;1793684;80;21005;-68
2022/05/07 01:22:29;;;;;;;2.42;2.10;;;;;;;20.17;45.17;100543.17;1793670;79;21761;-67
2022/05/07 01:24:57;;;;;;;2.08;1.62;;;;;;;20.16;45.14;100543.38;1794525;78;21049;-68
2022/05/07 01:27:25;;;;;;;1.85;1.70;;;;;;;20.16;45.14;100545.55;1793484;79;21084;-68
2022/05/07 01:29:52;;;;;;;1.80;1.70;;;;;;;20.15;45.16;100544.43;1793542;79;21009;-68
2022/05/07 01:32:18;;;;;;;2.27;2.08;;;;;;;20.14;45.18;100536.84;1800446;78;21045;-67
2022/05/07 01:34:45;;;;;;;1.70;1.60;;;;;;;20.13;45.15;100543.28;1826035;78;21239;-69
2022/05/07 01:37:12;;;;;;;2.27;2.05;;;;;;;20.13;45.15;100542.47;1826037;78;21533;-67
2022/05/07 01:39:38;;;;;;;2.30;2.10;;;;;;;20.11;45.15;100536.42;1820632;78;21005;-68
2022/05/07 01:42:05;;;;;;;2.08;1.87;;;;;;;20.11;45.13;100535.08;1825065;78;21513;-67
2022/05/07 01:44:33;;;;;;;2.20;2.00;;;;;;;20.10;45.14;100532.09;1826243;78;21585;-67
2022/05/07 01:49:37;;;;;;;2.00;1.80;;;;;;;20.08;45.14;100530.94;1772946;80;21045;-68
2022/05/07 01:52:05;;;;;;;2.35;2.15;;;;;;;20.08;45.17;100537.69;1826066;78;20978;-67
2022/05/07 01:54:35;;;;;;;2.05;1.85;;;;;;;20.07;45.16;100531.15;1826032;78;20997;-68
2022/05/07 01:57:03;;;;;;;1.92;1.80;;;;;;;20.06;45.16;100534.38;1824838;78;21021;-69
2022/05/07 01:59:30;;;;;;;2.60;2.20;;;;;;;20.05;45.18;100527.34;1826399;78;21090;-68
2022/05/07 02:01:58;;;;;;;2.92;1.90;;;;;;;20.05;45.18;100531.39;1825941;78;21533;-68
2022/05/07 02:04:26;;;;;;;2.30;1.95;;;;;;;20.04;45.18;100531.06;1826084;78;21025;-68
2022/05/07 02:06:52;;;;;;;2.58;2.15;;;;;;;20.03;45.17;100530.77;1825939;78;20987;-68
2022/05/07 02:09:19;;;;;;;2.40;2.20;;;;;;;20.02;45.16;100526.41;1826047;78;21513;-68
2022/05/07 02:11:46;;;;;;;2.67;2.00;;;;;;;20.02;45.18;100527.75;1826127;78;22075;-68
2022/05/07 02:14:12;;;;;;;2.40;1.87;;;;;;;20.00;45.15;100529.30;1821185;78;21037;-68
2022/05/07 02:16:41;;;;;;;1.98;1.87;;;;;;;20.01;45.16;100535.52;1793581;79;21609;-68
2022/05/07 02:19:07;;;;;;;2.40;2.15;;;;;;;19.99;45.14;100534.41;1793564;80;21029;-68
2022/05/07 02:21:37;;;;;;;2.17;1.98;;;;;;;19.98;45.15;100530.03;1793575;80;21029;-68
2022/05/07 02:24:07;;;;;;;2.47;2.27;;;;;;;19.99;45.16;100536.25;1794037;80;21280;-68
2022/05/07 02:26:33;;;;;;;2.12;1.72;;;;;;;19.97;45.15;100536.48;1775755;80;21069;-67
2022/05/07 02:29:01;;;;;;;2.40;2.00;;;;;;;19.97;45.16;100535.63;1793558;79;21037;-68
2022/05/07 02:31:28;;;;;;;2.50;2.20;;;;;;;19.95;45.19;100535.02;1794637;78;21493;-68
2022/05/07 02:33:55;;;;;;;2.27;2.08;;;;;;;19.95;45.17;100530.97;1822043;77;21084;-68
2022/05/07 02:36:22;;;;;;;2.25;2.02;;;;;;;19.94;45.17;100532.03;1826083;78;21152;-67
2022/05/07 02:38:50;;;;;;;2.02;1.70;;;;;;;19.94;45.18;100534.20;1825978;78;20978;-68
2022/05/07 02:44:04;;;;;;;2.52;2.33;;;;;;;19.91;45.18;100533.78;1826282;78;21518;-68
2022/05/07 02:46:31;;;;;;;2.47;2.27;;;;;;;19.92;45.18;100532.76;1826115;78;21072;-67
2022/05/07 02:48:58;;;;;;;3.17;2.30;;;;;;;19.91;45.19;100533.78;1825199;78;21125;-68
2022/05/07 02:53:35;;;;;;;2.40;2.20;;;;;;;19.94;45.17;100530.68;1870366;76;22536;-68
2022/05/07 02:56:04;;;;;;;2.67;2.20;;;;;;;19.89;45.16;100531.81;1826789;78;20917;-68
2022/05/07 02:58:31;;;;;;;2.52;2.27;;;;;;;19.89;45.17;100534.52;1826615;78;21773;-69
2022/05/07 03:00:58;;;;;;;2.60;2.40;;;;;;;19.88;45.19;100539.09;1826572;78;20930;-68
2022/05/07 03:03:25;;;;;;;2.42;2.10;;;;;;;19.87;45.19;100544.16;1826540;78;20963;-68
2022/05/07 03:05:55;;;;;;;3.25;2.52;;;;;;;19.86;45.21;100546.56;1812627;77;21556;-67
2022/05/07 03:08:24;;;;;;;2.72;2.30;;;;;;;19.85;45.18;100534.10;1793940;80;20985;-68
2022/05/07 03:10:54;;;;;;;3.05;2.75;;;;;;;19.83;45.22;100537.00;1794258;80;21119;-67
2022/05/07 03:13:21;;;;;;;2.65;2.40;;;;;;;19.84;45.21;100537.85;1794040;80;21029;-67
2022/05/07 03:15:49;;;;;;;2.70;2.50;;;;;;;19.83;45.23;100540.22;1794035;80;21021;-68
2022/05/07 03:18:16;;;;;;;2.40;2.20;;;;;;;19.83;45.22;100538.87;1793982;79;20998;-68
2022/05/07 03:20:43;;;;;;;2.60;2.40;;;;;;;19.81;45.20;100540.42;1794123;79;21037;-68
2022/05/07 03:23:13;;;;;;;2.67;2.47;;;;;;;19.81;45.22;100540.42;1794739;78;21138;-68
2022/05/07 03:25:40;;;;;;;2.70;2.50;;;;;;;19.81;45.23;100543.13;1793934;80;20981;-68
2022/05/07 03:28:07;;;;;;;2.67;2.47;;;;;;;19.80;45.21;100540.13;1794057;80;21049;-68
2022/05/07 03:30:39;;;;;;;3.02;2.60;;;;;;;19.80;45.21;100540.66;1794007;80;21049;-68
2022/05/07 03:33:07;;;;;;;3.45;3.15;;;;;;;19.79;45.22;100550.59;1805493;78;21533;-68
2022/05/07 03:35:35;;;;;;;2.45;2.05;;;;;;;19.78;45.22;100546.26;1826521;78;21128;-66
2022/05/07 03:38:02;;;;;;;3.35;2.65;;;;;;;19.78;45.24;100540.86;1826708;78;20998;-67
2022/05/07 03:40:32;;;;;;;2.77;2.58;;;;;;;19.78;45.22;100547.61;1804329;78;21061;-68
2022/05/07 03:42:59;;;;;;;2.83;2.52;;;;;;;19.77;45.23;100547.28;1793916;80;21517;-67
2022/05/07 03:45:27;;;;;;;4.20;2.55;;;;;;;19.77;45.20;100545.93;1793990;80;21119;-68
2022/05/07 03:47:54;;;;;;;2.77;2.33;;;;;;;19.76;45.21;100553.72;1794224;80;21851;-67
2022/05/07 03:50:21;;;;;;;3.15;2.60;;;;;;;19.76;45.20;100548.33;1793840;79;21033;-68
2022/05/07 03:55:33;;;;;;;3.12;2.83;;;;;;;19.75;45.21;100552.05;1783508;80;21048;-69
2022/05/07 03:58:00;;;;;;;3.30;2.50;;;;;;;19.75;45.17;100545.84;1784445;79;21006;-68
2022/05/07 04:00:28;;;;;;;3.35;2.30;;;;;;;19.74;45.17;100554.45;1783041;79;21096;-68
2022/05/07 04:02:56;;;;;;;3.00;2.70;;;;;;;19.74;45.17;100553.60;1782962;80;21042;-67
2022/05/07 04:05:25;;;;;;;2.83;2.40;;;;;;;19.73;45.18;100555.48;1781353;79;21060;-68
2022/05/07 04:07:54;;;;;;;2.62;2.42;;;;;;;19.74;45.16;100554.95;1782594;80;20991;-68
2022/05/07 04:10:22;;;;;;;3.20;2.52;;;;;;;19.73;45.18;100558.17;1782506;79;20982;-68
2022/05/07 04:12:51;;;;;;;3.10;2.77;;;;;;;19.74;45.17;100556.30;1782945;79;21490;-68
2022/05/07 04:15:21;;;;;;;3.77;2.75;;;;;;;19.75;45.20;100557.45;1782379;79;21026;-67
2022/05/07 04:17:53;;;;;;;;;;;;;;;19.75;45.20;100555.28;1785447;79;21041;-68
2022/05/07 04:20:20;;;;;;;2.92;2.62;;;;;;;19.75;45.18;100554.75;1782548;80;20158;-67
2022/05/07 04:22:49;;;;;;;3.77;2.65;;;;;;;19.75;45.20;100558.80;1782884;79;21018;-68
2022/05/07 04:25:16;;;;;;;3.62;2.72;;;;;;;19.77;45.19;100562.11;1782429;80;21257;-68
2022/05/07 04:27:44;;;;;;;2.47;2.27;;;;;;;19.78;45.19;100558.88;1782527;80;21502;-67
2022/05/07 04:30:13;;;;;;;3.02;2.72;;;;;;;19.78;45.22;100562.92;1783557;79;21037;-68
2022/05/07 04:32:41;;;;;;;3.25;2.47;;;;;;;19.79;45.22;100555.98;1807687;79;21072;-66
2022/05/07 04:35:08;;;;;;;3.00;2.70;;;;;;;19.81;45.23;100561.17;1814583;78;20986;-68
2022/05/07 04:37:38;;;;;;;3.12;2.83;;;;;;;19.82;45.23;100562.32;1814594;78;21136;-68
2022/05/07 04:40:09;;;;;;;2.92;2.62;;;;;;;19.84;45.19;100560.24;1814530;79;21544;-67
2022/05/07 04:42:37;;;;;;;4.17;3.27;;;;;;;19.84;45.21;100554.84;1803876;79;21057;-67
2022/05/07 04:45:07;;;;;;;2.27;2.08;;;;;;;19.87;45.20;100559.52;1814628;79;20994;-68
2022/05/07 04:47:35;;;;;;;3.02;2.40;;;;;;;19.87;45.19;100552.24;1809288;78;21509;-67
2022/05/07 04:50:04;;;;;;;3.00;2.50;;;;;;;19.88;45.16;100552.56;1814676;79;21204;-69
2022/05/07 04:52:32;;;;;;;3.65;2.90;;;;;;;19.88;45.19;100546.36;1814277;78;21423;-67
2022/05/07 04:55:02;;;;;;;3.08;2.72;;;;;;;19.91;45.20;100552.66;1814595;78;20994;-68
2022/05/07 04:57:29;;;;;;;2.67;2.47;;;;;;;19.92;45.20;100544.89;1814523;79;21069;-68
2022/05/07 04:59:59;;;;;;;2.83;2.58;;;;;;;19.92;45.19;100546.24;1814391;78;21053;-67
2022/05/07 05:02:27;;;;;;;2.95;2.65;;;;;;;19.93;45.19;100547.88;1813784;78;21526;-68
2022/05/07 05:04:55;;;;;;;3.42;2.40;;;;;;;19.94;45.20;100543.63;1813244;78;21521;-68
2022/05/07 05:07:24;;;;;;;2.42;2.08;;;;;;;19.96;45.19;100558.27;1813553;78;21022;-68
2022/05/07 05:09:51;;;;;;;4.80;2.95;;;;;;;19.97;45.20;100550.46;1814552;79;21369;-68
2022/05/07 05:12:23;;;;;;;2.58;2.30;;;;;;;19.98;45.19;100547.56;1813838;78;21042;-68
2022/05/07 05:15:03;;;;;;;2.62;2.20;;;;;;;19.98;45.21;100553.48;1814625;78;21135;-68
2022/05/07 05:17:34;;;;;;;3.70;3.30;;;;;;;20.00;45.20;100552.75;1812401;78;21484;-68
2022/05/07 05:20:03;;;;;;;2.75;2.55;;;;;;;20.01;45.19;100554.39;1814531;78;21041;-67
2022/05/07 05:22:34;;;;;;;3.95;3.10;;;;;;;20.01;45.18;100554.39;1792344;79;21018;-69
2022/05/07 05:25:10;;;;;;;3.30;2.85;;;;;;;20.03;45.15;100563.13;1782687;80;21033;-68
2022/05/07 05:27:39;;;;;;;3.45;2.58;;;;;;;20.03;45.15;100559.09;1782651;79;21794;-68
2022/05/07 05:30:09;;;;;;;2.67;2.20;;;;;;;20.04;45.19;100562.89;1786847;79;21034;-68
2022/05/07 05:32:36;;;;;;;2.92;2.40;;;;;;;20.05;45.19;100554.31;1814601;78;20995;-68
2022/05/07 05:35:07;;;;;;;2.52;2.33;;;;;;;20.07;45.18;100556.77;1814627;78;21062;-68
2022/05/07 05:37:37;;;;;;;3.05;2.50;;;;;;;20.07;45.18;100552.72;1814504;78;21014;-68
2022/05/07 05:40:05;;;;;;;2.72;2.52;;;;;;;20.07;45.19;100559.47;1813979;79;21189;-68
2022/05/07 05:42:34;;;;;;;2.50;2.30;;;;;;;20.08;45.21;100556.56;1814489;78;21017;-68
2022/05/07 05:45:01;;;;;;;3.00;2.70;;;;;;;20.09;45.22;100565.48;1814547;78;21073;-68
2022/05/07 05:47:28;;;;;;;3.70;2.87;;;;;;;20.10;45.21;100565.27;1814465;79;21010;-68
2022/05/07 05:49:54;;;;;;;2.72;2.52;;;;;;;20.12;45.20;100560.50;1810257;79;21529;-68
2022/05/07 05:52:22;;;;;;;3.20;2.90;;;;;;;20.13;45.22;100574.30;1807448;78;21342;-68
2022/05/07 05:54:51;;;;;;;2.60;2.40;;;;;;;20.14;45.22;100566.51;1806543;79;21279;-68
2022/05/07 05:57:17;;;;;;;2.72;2.50;;;;;;;20.15;45.24;100576.27;1781407;79;21010;-67
2022/05/07 05:59:45;;;;;;;3.42;3.12;;;;;;;20.16;45.26;100571.17;1782485;79;22002;-68
2022/05/07 06:02:18;;;;;;;2.98;2.52;;;;;;;20.18;45.28;100576.36;1771475;80;21052;-68
2022/05/07 06:04:58;;;;;;;2.60;2.40;;;;;;;20.19;45.27;100577.50;1782305;79;21154;-68
2022/05/07 06:07:28;;;;;;;3.42;2.80;;;;;;;20.21;45.31;100582.70;1782617;80;21538;-68
2022/05/07 06:09:56;;;;;;;3.15;2.80;;;;;;;20.22;45.34;100578.44;1782438;79;21037;-68
2022/05/07 06:12:24;;;;;;;3.37;2.83;;;;;;;20.25;45.40;100581.75;1783393;79;21041;-69
2022/05/07 06:14:57;;;;;;;3.05;2.77;;;;;;;20.27;45.46;100591.81;1782637;80;21537;-68
2022/05/07 06:17:27;;;;;;;3.20;2.67;;;;;;;20.29;45.55;100581.64;1782265;79;21902;-68
2022/05/07 06:19:54;;;;;;;3.37;2.87;;;;;;;20.30;45.61;100577.39;1782415;80;21029;-70
2022/05/07 06:22:25;;;;;;;3.72;2.87;;;;;;;20.32;45.65;100582.55;1782371;79;21076;-68
2022/05/07 06:27:49;;;;;;;3.25;2.90;;;;;;;20.35;45.83;100572.69;1782353;79;21077;-68
2022/05/07 06:30:17;;;;;;;3.05;2.35;;;;;;;20.36;45.88;100575.19;1790038;77;21843;-68
2022/05/07 06:32:45;;;;;;;2.95;2.20;;;;;;;20.38;45.87;100582.55;1814294;78;21041;-69
2022/05/07 06:35:12;;;;;;;3.02;2.72;;;;;;;20.40;45.90;100586.39;1814509;79;20979;-69
2022/05/07 06:37:56;;;;;;;4.78;2.67;;;;;;;20.41;45.92;100580.75;1814030;78;21038;-68
2022/05/07 06:40:23;;;;;;;4.17;2.92;;;;;;;20.43;45.88;100583.24;1814541;79;21521;-69
2022/05/07 06:42:51;;;;;;;3.20;2.90;;;;;;;20.46;45.87;100579.31;1814516;79;21131;-69
2022/05/07 06:45:26;;;;;;;3.08;2.72;;;;;;;20.47;45.90;100582.30;1813036;78;21081;-69
2022/05/07 06:47:53;;;;;;;3.52;2.70;;;;;;;20.49;45.91;100584.27;1813549;78;21061;-69
2022/05/07 06:50:20;;;;;;;3.42;2.60;;;;;;;20.50;45.90;100578.66;1814498;78;21010;-69
2022/05/07 06:52:47;;;;;;;2.87;2.55;;;;;;;20.53;45.91;100578.75;1814556;77;21554;-68
2022/05/07 06:55:15;;;;;;;3.02;2.70;;;;;;;20.55;45.92;100575.31;1814522;79;21074;-69
2022/05/07 06:57:43;;;;;;;3.17;2.92;;;;;;;20.57;45.91;100566.48;1814446;79;21041;-69
2022/05/07 07:00:11;;;;;;;3.77;2.90;;;;;;;20.59;45.91;100577.88;1814734;79;21538;-68
2022/05/07 07:02:38;;;;;;;3.52;2.72;;;;;;;20.61;45.94;100575.33;1814739;79;21014;-68
2022/05/07 07:05:06;;;;;;;3.58;2.60;;;;;;;20.62;46.01;100570.23;1813798;79;21029;-68
2022/05/07 07:07:33;;;;;;;3.00;2.70;;;;;;;20.66;45.89;100569.28;1814440;78;21095;-68
2022/05/07 07:10:01;;;;;;;3.30;2.90;;;;;;;20.68;45.87;100568.55;1814711;79;20986;-68
2022/05/07 07:12:29;;;;;;;3.22;2.65;;;;;;;20.71;45.77;100570.01;1814498;79;21030;-68
2022/05/07 07:15:02;;;;;;;3.10;2.80;;;;;;;20.73;45.76;100578.72;1814449;79;21498;-68
2022/05/07 07:17:44;;;;;;;3.90;2.72;;;;;;;20.76;45.71;100580.97;1805178;79;21033;-68
2022/05/07 07:20:11;;;;;;;2.72;2.50;;;;;;;20.78;45.80;100585.63;1813315;79;21207;-69
2022/05/07 07:22:40;;;;;;;3.27;2.60;;;;;;;20.79;45.78;100577.32;1814558;79;21483;-68
2022/05/07 07:25:08;;;;;;;3.27;2.87;;;;;;;20.82;45.77;100578.75;1814462;79;21042;-69
2022/05/07 07:27:36;;;;;;;2.95;2.65;;;;;;;20.84;45.73;100574.49;1814384;79;21490;-69
2022/05/07 07:30:04;;;;;;;4.80;3.12;;;;;;;20.87;45.73;100579.48;1814442;78;20991;-68
2022/05/07 07:32:30;;;;;;;3.25;2.95;;;;;;;20.88;45.73;100573.02;1814461;79;21109;-69
2022/05/07 07:34:57;;;;;;;4.55;2.90;;;;;;;20.90;45.72;100579.87;1814345;79;21498;-69
2022/05/07 07:37:27;;;;;;;3.58;2.80;;;;;;;20.91;45.72;100576.12;1813432;79;21018;-68
2022/05/07 07:39:54;;;;;;;3.10;2.80;;;;;;;20.94;45.64;100579.75;1803544;79;21057;-68
2022/05/07 07:42:23;;;;;;;3.70;3.10;;;;;;;20.96;45.66;100586.29;1814640;79;20990;-68
2022/05/07 07:47:56;;;;;;;4.45;2.80;;;;;;;20.99;45.58;100583.96;1814675;78;21134;-67
2022/05/07 07:50:04;;;;;;;3.10;2.75;;;;;;;21.03;45.54;100581.66;1815012;79;21005;-68
2022/05/07 07:52:46;;;;;;;3.65;2.90;;;;;;;21.04;45.54;100579.28;1814653;78;21022;-68
2022/05/07 07:55:16;;;;;;;3.35;3.02;;;;;;;21.06;45.56;100567.73;1813440;78;21037;-68
2022/05/07 07:57:43;;;;;;;3.33;2.77;;;;;;;21.08;45.63;100593.19;1814794;79;21074;-68
2022/05/07 08:00:11;;;;;;;3.52;2.90;;;;;;;21.10;45.67;100575.70;1814536;78;21053;-68
2022/05/07 08:02:54;;;;;;;3.20;2.58;;;;;;;21.12;45.69;100573.61;1814581;78;21454;-68
2022/05/07 08:05:25;;;;;;;3.05;2.83;;;;;;;21.13;45.63;100576.63;1814887;79;21010;-68
2022/05/07 08:13:28;;;;;;;3.10;2.80;;;;;;;21.19;45.62;100574.94;1782500;80;21463;-68
2022/05/07 08:15:55;;;;;;;3.40;2.87;;;;;;;21.21;45.61;100573.66;1771824;80;22038;-68
2022/05/07 08:18:21;;;;;;;4.00;3.35;;;;;;;21.22;45.64;100560.97;1782408;80;21025;-68
2022/05/07 08:20:48;;;;;;;3.52;3.17;;;;;;;21.25;45.63;100559.20;1782564;79;21561;-68
2022/05/07 08:23:15;;;;;;;3.12;2.67;;;;;;;21.26;45.59;100564.07;1782424;80;21137;-68
2022/05/07 08:25:41;;;;;;;3.30;2.98;;;;;;;21.27;45.64;100571.97;1782518;80;21081;-69
2022/05/07 08:28:08;;;;;;;3.35;3.05;;;;;;;21.29;45.67;100565.81;1783614;77;21073;-67
2022/05/07 08:30:36;;;;;;;3.30;3.00;;;;;;;21.31;45.69;100568.30;1806606;79;21034;-68
2022/05/07 08:33:06;;;;;;;3.20;2.90;;;;;;;21.32;45.69;100566.71;1814701;79;21032;-69
2022/05/07 08:35:33;;;;;;;3.00;2.80;;;;;;;21.35;45.74;100584.38;1814528;78;21282;-69
2022/05/07 08:37:59;;;;;;;3.08;2.77;;;;;;;21.36;45.69;100570.66;1814535;78;21019;-68
2022/05/07 08:40:29;;;;;;;4.12;2.98;;;;;;;21.39;45.64;100555.87;1814520;78;20986;-68
2022/05/07 08:42:56;;;;;;;3.80;3.22;;;;;;;21.41;45.67;100569.45;1814940;79;21007;-69
2022/05/07 08:45:23;;;;;;;3.58;3.02;;;;;;;21.43;45.71;100561.14;1813533;78;21543;-68
2022/05/07 08:47:53;;;;;;;4.45;2.98;;;;;;;21.45;45.74;100566.36;1814564;79;21139;-68
2022/05/07 08:50:21;;;;;;;3.40;3.10;;;;;;;21.47;45.68;100559.67;1814504;78;20995;-68
2022/05/07 08:52:49;;;;;;;3.33;2.90;;;;;;;21.50;45.59;100552.98;1814688;79;21502;-69
2022/05/07 08:55:17;;;;;;;4.22;3.12;;;;;;;21.52;45.70;100559.03;1814445;78;21038;-68
2022/05/07 08:57:47;;;;;;;3.72;3.40;;;;;;;21.53;45.78;100565.55;1814631;78;21003;-68
2022/05/07 09:00:16;;;;;;;3.22;2.92;;;;;;;21.56;45.66;100555.66;1813612;78;22159;-68
2022/05/07 09:02:50;;;;;;;3.15;2.75;;;;;;;21.58;45.70;100554.09;1813299;79;21033;-69
2022/05/07 09:05:20;;;;;;;3.27;2.98;;;;;;;21.60;45.75;100546.05;1814084;78;21027;-69
2022/05/07 09:07:59;;;;;;;3.45;3.10;;;;;;;21.62;45.77;100541.78;1814565;79;21174;-68
2022/05/07 09:10:27;;;;;;;3.22;2.77;;;;;;;21.64;45.65;100535.63;1814553;78;21010;-68
2022/05/07 09:13:13;;;;;;;3.35;3.05;;;;;;;21.67;45.74;100539.25;1814494;78;21133;-68
2022/05/07 09:15:58;;;;;;;3.12;2.92;;;;;;;21.69;45.67;100537.15;1814507;78;20990;-68
2022/05/07 09:18:26;;;;;;;3.02;2.75;;;;;;;21.72;45.54;100543.98;1814595;79;21018;-69
2022/05/07 09:21:24;;;;;;;3.33;3.02;;;;;;;21.75;45.42;100539.46;1787707;79;21478;-68
2022/05/07 09:24:06;;;;;;;3.30;2.95;;;;;;;21.77;45.53;100546.33;1782552;79;20983;-68
2022/05/07 09:26:38;;;;;;;3.02;2.70;;;;;;;21.80;45.38;100548.56;1782499;79;21248;-68
2022/05/07 09:29:07;;;;;;;4.30;3.17;;;;;;;21.83;45.49;100527.53;1799798;79;21033;-68
2022/05/07 09:31:35;;;;;;;2.98;2.70;;;;;;;21.85;45.46;100529.52;1814579;79;21009;-68
2022/05/07 09:37:19;;;;;;;3.10;2.80;;;;;;;21.92;45.42;100539.22;1813909;78;21017;-68
2022/05/07 09:39:47;;;;;;;3.12;2.72;;;;;;;21.96;45.43;100532.81;1814902;79;21174;-68
2022/05/07 09:42:17;;;;;;;3.72;2.85;;;;;;;22.01;45.59;100520.80;1814462;78;21000;-68
2022/05/07 09:44:43;;;;;;;3.17;2.77;;;;;;;22.05;45.58;100518.48;1803764;79;21057;-68
2022/05/07 09:47:12;;;;;;;3.05;2.75;;;;;;;22.10;45.76;100518.64;1814608;78;21076;-68
2022/05/07 09:50:20;;;;;;;3.72;3.33;;;;;;;22.14;45.83;100516.59;1814633;79;20994;-70
2022/05/07 09:52:10;;;;;;;3.70;3.35;;;;;;;22.19;45.89;100514.05;1813063;79;21094;-68
2022/05/07 09:57:30;;;;;;;3.27;2.77;;;;;;;22.31;45.77;100517.36;1826401;78;21068;-68
2022/05/07 10:00:06;;;;;;;2.95;2.75;;;;;;;22.37;45.80;100504.30;1826037;78;21080;-68
2022/05/07 10:03:08;;;;;;;3.12;2.80;;;;;;;22.44;45.86;100503.66;1825297;78;21606;-68
2022/05/07 10:06:04;;;;;;;3.35;2.80;;;;;;;22.49;45.62;100504.35;1807893;78;21155;-69
2022/05/07 10:08:50;;;;;;;3.15;2.85;;;;;;;22.56;45.64;100499.15;1825941;78;21697;-68
2022/05/07 10:11:17;;;;;;;3.52;3.10;;;;;;;22.62;45.85;100498.77;1820398;78;21021;-67
2022/05/07 10:13:54;;;;;;;3.95;2.80;;;;;;;22.67;45.88;100504.30;1826110;78;20998;-69
2022/05/07 10:16:25;;;;;;;3.17;2.87;;;;;;;22.73;45.77;100501.20;1826011;78;21049;-68
2022/05/07 10:18:49;;;;;;;3.25;3.00;;;;;;;22.80;45.57;100500.59;1825629;78;21211;-67
2022/05/07 10:21:18;;;;;;;2.83;2.62;;;;;;;22.87;45.32;100494.55;1826313;78;20998;-68
2022/05/07 10:23:55;;;;;;;3.60;2.83;;;;;;;22.92;45.40;100502.80;1826133;78;21006;-67
2022/05/07 10:26:39;;;;;;;3.42;3.02;;;;;;;22.99;45.81;100492.41;1825932;78;21057;-68
2022/05/07 10:29:07;;;;;;;3.72;3.42;;;;;;;23.03;45.83;100482.79;1824986;78;21505;-68
2022/05/07 10:31:46;;;;;;;2.83;2.62;;;;;;;23.08;45.86;100484.25;1825968;78;21131;-68
2022/05/07 10:34:26;;;;;;;3.17;2.85;;;;;;;23.14;45.79;100486.02;1825939;78;21596;-68
2022/05/07 10:37:06;;;;;;;2.92;2.70;;;;;;;23.19;45.49;100471.25;1826092;78;20990;-68
2022/05/07 10:39:34;;;;;;;2.87;2.62;;;;;;;23.25;45.28;100482.52;1825901;78;21703;-67
2022/05/07 10:42:02;;;;;;;3.30;3.00;;;;;;;23.29;45.45;100475.55;1808087;78;21478;-68
2022/05/07 10:44:34;;;;;;;2.90;2.60;;;;;;;23.35;45.60;100469.22;1824734;78;21130;-68
2022/05/07 10:47:11;;;;;;;3.22;2.90;;;;;;;23.39;45.75;100457.35;1826055;78;21486;-67
2022/05/07 10:50:15;;;;;;;2.90;2.70;;;;;;;23.46;45.62;100465.38;1826105;78;21451;-68
2022/05/07 10:52:40;;;;;;;2.80;2.60;;;;;;;23.50;45.41;100464.66;1825970;78;21026;-68
2022/05/07 10:55:13;;;;;;;3.10;2.80;;;;;;;23.57;45.18;100464.56;1758497;78;21057;-68
2022/05/07 10:57:47;;;;;;;3.45;3.15;;;;;;;23.63;44.99;100458.19;1823544;77;21842;-68
2022/05/07 11:00:21;;;;;;;2.90;2.60;;;;;;;23.69;44.90;100461.30;1823269;78;21493;-67
2022/05/07 11:02:50;;;;;;;3.25;2.95;;;;;;;23.74;44.97;100452.47;1822264;77;21072;-68
2022/05/07 11:05:17;;;;;;;3.25;2.95;;;;;;;23.81;45.04;100458.59;1805269;78;20994;-68
2022/05/07 11:07:43;;;;;;;2.62;2.42;;;;;;;23.87;44.99;100451.40;1823477;78;21505;-68
2022/05/07 11:10:12;;;;;;;3.00;2.80;;;;;;;23.93;44.74;100465.36;1787557;78;21468;-67
2022/05/07 11:12:39;;;;;;;3.33;2.80;;;;;;;24.00;44.54;100461.17;1781987;80;21079;-68
2022/05/07 11:15:07;;;;;;;3.17;2.87;;;;;;;24.07;44.45;100449.12;1782265;80;21020;-68
2022/05/07 11:17:36;;;;;;;2.85;2.65;;;;;;;24.14;44.40;100448.97;1782113;80;21021;-68
2022/05/07 11:20:04;;;;;;;2.92;2.67;;;;;;;24.23;44.32;100449.43;1754398;80;21029;-68
2022/05/07 11:22:31;;;;;;;3.35;3.05;;;;;;;24.29;44.29;100447.91;1732024;82;21144;-67
2022/05/07 11:25:01;;;;;;;3.25;2.98;;;;;;;24.36;44.23;100449.15;1732053;82;21010;-67
2022/05/07 11:27:33;;;;;;;3.13;2.93;;;;;;;24.42;44.15;100450.89;1732165;82;21017;-67
2022/05/07 11:30:01;;;;;;;2.60;2.40;;;;;;;24.49;44.17;100450.73;1731988;82;21062;-68
2022/05/07 11:32:38;;;;;;;3.17;2.80;;;;;;;24.53;44.19;100432.39;1750833;82;21076;-68
2022/05/07 11:35:10;;;;;;;3.15;2.47;;;;;;;24.57;44.37;100428.66;1751790;80;21772;-67
2022/05/07 11:37:41;;;;;;;3.15;2.85;;;;;;;24.62;44.45;100431.99;1719141;83;21111;-68
2022/05/07 11:40:09;;;;;;;2.75;2.55;;;;;;;24.63;44.47;100431.75;1750804;82;21113;-67
2022/05/07 11:42:46;;;;;;;3.17;2.87;;;;;;;24.65;44.58;100420.65;1750946;82;21025;-68
2022/05/07 11:45:26;;;;;;;3.27;2.70;;;;;;;24.66;44.70;100425.00;1750971;82;21076;-68
2022/05/07 11:48:07;;;;;;;2.98;2.60;;;;;;;24.65;44.69;100430.16;1750739;82;21141;-68
2022/05/07 11:50:40;;;;;;;3.00;2.80;;;;;;;24.65;44.70;100442.38;1749330;82;21013;-68
2022/05/07 11:53:14;;;;;;;2.50;2.30;;;;;;;24.62;44.66;100429.27;1751307;80;21041;-68
2022/05/07 11:55:42;;;;;;;2.83;2.62;;;;;;;24.61;44.58;100422.18;1748808;81;21030;-68
2022/05/07 11:58:23;;;;;;;2.90;2.70;;;;;;;24.58;44.55;100420.78;1751287;82;21012;-69
2022/05/07 12:00:55;;;;;;;2.80;2.60;;;;;;;24.57;44.56;100419.16;1751276;82;21286;-69
2022/05/07 12:03:26;;;;;;;2.60;2.40;;;;;;;24.55;44.55;100413.66;1750879;82;21064;-68
2022/05/07 12:05:57;;;;;;;2.65;2.42;;;;;;;24.51;44.48;100414.16;1750834;82;21053;-69